Date,TemperatureHighF,TemperatureAvgF,TemperatureLowF,DewpointHighF,DewpointAvgF,DewpointLowF,HumidityHigh,HumidityAvg,HumidityLow,PressureMaxIn,PressureMinIn,WindSpeedMaxMPH,WindSpeedAvgMPH,GustSpeedMaxMPH,PrecipitationSumIn
2013-1-1,24.3,23.4,21.9,20.0,18.6,17.0,89,81,74,30.19,30.07,21,11,24,0.00
2013-1-2,26.8,25.1,22.9,23.0,21.1,18.0,89,84,78,30.14,30.05,15,7,20,0.00
2013-1-3,31.5,29.0,25.0,27.0,25.4,22.0,91,86,80,30.11,30.00,24,13,30,0.00
2013-1-4,36.6,30.4,26.9,32.0,26.8,24.0,90,86,78,30.13,29.93,31,19,36,0.00
2013-1-5,37.0,31.4,22.5,34.0,27.5,20.0,92,85,77,30.22,29.88,23,5,24,0.03
2013-1-6,36.3,32.5,27.5,33.0,28.3,21.0,92,84,75,30.28,29.83,22,12,28,0.12
2013-1-7,39.1,33.4,22.8,33.0,28.0,19.0,86,80,70,30.29,29.94,38,18,43,0.17
2013-1-8,45.4,36.9,31.3,37.0,32.3,29.0,92,83,69,30.16,29.96,17,6,25,0.04
2013-1-9,40.3,38.5,37.1,36.0,33.1,30.0,86,81,75,30.44,29.84,29,17,33,0.04
2013-1-10,45.0,35.4,26.8,32.0,28.8,25.0,93,78,60,30.55,30.06,16,2,18,0.00
2013-1-11,47.2,40.2,35.4,46.0,39.1,32.0,100,96,78,30.05,29.66,17,5,22,0.28
2013-1-12,50.1,44.4,34.4,47.0,40.0,30.0,95,84,73,29.97,29.60,36,17,44,0.00
2013-1-13,34.3,31.3,27.4,31.0,28.1,23.0,93,87,83,30.03,29.86,22,8,25,0.00
2013-1-14,28.4,24.8,21.9,24.0,19.7,15.0,89,80,69,30.40,30.04,25,13,26,0.00
2013-1-15,30.8,25.3,18.5,23.0,18.9,13.0,83,77,71,30.43,30.09,24,12,27,0.00
2013-1-16,33.2,29.3,26.3,31.0,25.4,21.0,96,85,77,30.09,29.69,30,16,39,0.00
2013-1-17,26.9,19.7,16.7,22.0,14.5,10.0,89,80,72,30.39,30.04,22,16,32,0.00
2013-1-18,39.6,24.4,14.5,35.0,19.5,8.0,90,82,70,30.41,29.77,22,9,30,0.05
2013-1-19,40.2,36.0,29.1,37.0,33.6,26.0,95,91,79,29.84,29.48,29,12,37,0.01
2013-1-20,28.5,18.1,15.2,25.0,14.2,10.0,93,84,76,30.19,29.58,31,16,42,0.01
2013-1-21,15.4,10.1,3.9,13.0,7.6,1.0,91,89,86,30.17,30.02,22,14,27,0.00
2013-1-22,10.3,6.5,4.2,8.0,3.8,1.0,99,88,88,30.31,30.16,19,12,24,0.00
2013-1-23,17.7,13.9,10.2,16.0,11.8,8.0,92,91,89,30.30,30.10,24,13,30,0.00
2013-1-24,16.9,12.4,9.0,14.0,10.0,6.0,92,90,89,30.69,30.29,21,3,23,0.01
2013-1-25,22.4,16.3,10.8,21.0,14.3,8.0,94,91,88,30.50,29.99,13,4,18,0.01
2013-1-30,32.2,28.6,23.7,32.0,27.8,23.0,97,96,94,29.32,29.18,28,16,35,0.04
2013-1-31,23.7,20.1,18.5,23.0,18.7,17.0,100,94,93,29.93,29.32,25,18,30,0.04
2013-2-1,18.6,17.4,15.7,17.0,15.7,14.0,94,93,91,30.15,29.93,27,16,31,0.00
2013-2-6,28.3,25.8,21.1,24.0,20.8,16.0,94,82,71,30.29,30.22,13,4,16,0.00
2013-2-7,29.9,27.7,23.7,29.0,26.3,22.0,95,94,92,30.23,30.09,5,1,8,0.00
2013-2-8,25.3,20.6,8.5,22.0,18.1,6.0,94,90,80,30.44,30.12,10,3,15,0.00
2013-2-9,34.4,16.9,0.6,24.0,11.9,-2.0,92,81,63,30.46,30.24,10,2,14,0.02
2013-2-10,36.6,29.3,21.3,35.0,25.6,17.0,95,86,77,30.24,29.50,13,4,19,0.06
2013-2-11,41.2,35.0,30.5,40.0,32.9,25.0,97,92,80,29.84,29.39,22,13,32,0.06
2013-2-12,30.5,28.3,27.1,26.0,24.2,22.0,90,84,79,30.02,29.84,21,12,25,0.06
2013-2-13,37.3,32.8,27.2,33.0,29.5,24.0,92,87,79,29.88,29.70,18,10,22,0.02
2013-2-14,34.3,31.4,24.5,34.0,27.7,-99.9,100,93,90,29.93,29.61,30,-2,35,0.02
2013-2-15,24.4,22.0,18.4,23.0,19.8,15.0,95,91,84,30.17,29.93,22,12,26,0.02
2013-2-16,21.0,18.0,14.9,17.0,13.4,10.0,92,82,73,30.20,30.10,16,6,19,0.00
2013-2-17,21.4,16.8,11.7,15.0,12.2,7.0,88,82,74,30.24,30.13,11,3,17,0.00
2013-2-18,42.4,30.6,17.9,36.0,23.4,13.0,96,75,60,30.13,29.41,14,4,19,0.19
2013-2-19,37.9,26.5,17.8,37.0,25.2,16.0,100,95,92,29.95,29.25,27,16,34,0.42
2013-2-20,23.5,20.0,17.8,22.0,18.6,16.0,95,94,93,30.36,29.96,33,23,42,0.00
2013-2-21,22.9,20.3,15.3,21.0,18.6,13.0,94,93,91,30.48,30.33,21,5,28,0.00
2013-2-22,29.2,25.6,18.0,28.0,24.3,16.0,96,94,91,30.34,29.85,5,1,14,0.00
2013-2-23,29.6,28.2,25.6,29.0,27.2,24.0,97,96,94,29.88,29.79,12,5,15,0.00
2013-2-24,34.4,31.2,28.1,32.0,29.5,26.0,96,93,89,30.17,29.86,10,5,13,0.04
2013-2-25,36.4,31.6,23.0,32.0,28.9,21.0,94,90,80,30.23,30.15,10,2,12,0.03
2013-2-26,39.1,32.6,26.9,30.0,27.5,23.0,92,82,69,30.20,29.79,8,3,17,0.06
2013-2-27,34.4,32.7,31.1,32.0,30.8,28.0,96,92,84,29.78,29.67,9,4,17,0.03
2013-2-28,33.2,29.9,24.7,32.0,27.7,20.0,96,91,80,30.14,29.75,21,9,24,0.04
2013-3-1,26.7,22.7,19.5,22.0,18.0,15.0,87,82,74,30.28,30.14,14,6,19,0.00
2013-3-2,25.7,21.1,12.7,22.0,17.2,9.0,89,84,78,30.26,30.18,19,6,22,0.00
2013-3-3,25.6,23.1,21.5,20.0,18.0,15.0,87,81,74,30.17,30.12,17,8,19,0.01
2013-3-4,28.6,21.9,14.9,23.0,17.7,12.0,90,84,70,30.23,30.16,12,3,15,0.01
2013-3-5,34.4,21.8,8.2,27.0,17.3,6.0,92,83,67,30.22,30.04,9,2,13,0.01
2013-3-6,34.6,30.8,26.3,31.0,28.2,23.0,96,90,85,30.33,30.13,19,7,23,0.01
2013-3-7,28.5,26.9,24.7,27.0,23.6,22.0,96,87,80,30.50,30.33,19,6,22,0.00
2013-3-8,35.5,27.3,17.9,29.0,23.8,16.0,94,86,74,30.56,30.41,10,2,12,0.00
2013-3-9,42.1,33.5,22.5,34.0,27.2,21.0,94,79,57,30.40,29.95,7,2,14,0.22
2013-3-10,41.1,37.2,34.5,40.0,36.0,34.0,98,95,90,29.95,29.80,8,0,15,0.21
2013-3-11,40.8,37.0,31.9,40.0,36.5,31.0,98,97,95,29.80,29.48,0,0,2,0.09
2013-3-12,32.0,28.7,24.3,31.0,26.0,22.0,97,89,78,29.92,29.59,0,0,2,0.10
2013-3-13,29.9,26.3,23.4,25.0,22.6,19.0,95,86,66,30.27,29.91,2,0,4,0.01
2013-3-14,35.2,30.7,27.9,29.0,24.1,21.0,82,77,71,30.29,30.04,1,0,4,0.00
2013-3-15,34.6,31.0,24.3,32.0,26.5,17.0,94,83,72,30.03,29.91,0,0,0,0.00
2013-3-16,26.7,23.0,20.2,22.0,17.9,14.0,91,80,66,30.09,29.94,0,0,0,0.03
2013-3-17,32.2,23.1,16.2,24.0,16.0,12.0,93,75,48,30.39,30.09,28,7,34,0.01
2013-3-18,41.1,28.0,17.6,31.0,22.1,12.0,94,79,48,30.24,29.53,8,2,13,0.00
2013-3-19,31.7,26.3,23.8,30.0,25.0,22.0,95,94,94,29.64,29.51,22,16,28,0.00
2013-3-20,25.9,24.7,23.7,23.0,20.6,18.0,93,84,77,29.96,29.92,19,12,28,0.00
2013-3-21,28.0,26.9,24.4,27.0,24.9,22.0,95,92,87,30.02,29.90,24,17,28,0.00
2013-3-22,31.6,29.2,25.5,29.0,26.1,22.0,92,88,83,30.10,30.00,17,9,21,0.01
2013-3-23,36.1,31.4,27.8,31.0,27.9,24.0,91,86,79,30.17,30.10,11,4,13,0.03
2013-3-24,36.2,31.7,25.5,29.0,26.4,23.0,90,81,65,30.14,29.89,12,3,14,0.00
2013-3-25,37.2,32.5,26.3,32.0,28.4,24.0,90,84,78,30.07,29.87,20,8,24,0.00
2013-3-26,39.1,35.2,33.5,34.0,32.2,30.0,93,89,79,30.21,30.06,15,10,19,0.00
2013-3-27,41.0,35.7,32.6,36.0,31.7,28.0,91,85,75,30.28,30.19,18,8,19,0.00
2013-3-28,43.2,36.0,30.1,36.0,30.2,25.0,86,79,68,30.33,30.28,9,3,12,0.00
2013-3-29,46.2,32.9,23.2,35.0,27.8,22.0,96,82,58,30.35,30.26,4,0,5,0.00
2013-3-30,48.0,36.5,25.4,41.0,28.8,22.0,94,75,46,30.26,29.82,20,5,29,0.11
2013-3-31,42.7,37.7,30.5,41.0,35.8,25.0,98,92,77,29.83,29.62,29,12,35,0.02
2013-4-1,32.4,28.3,25.5,25.0,22.1,18.0,85,77,67,30.14,29.83,30,17,34,0.02
2013-4-2,35.9,30.9,28.1,24.0,21.7,19.0,79,69,60,30.31,30.10,21,11,24,0.00
2013-4-3,30.3,29.2,28.2,22.0,20.8,19.0,76,71,63,30.41,30.30,21,17,26,0.00